sensor_id;sensor_type;location;lat;lon;timestamp;temperature;humidity
23731;DHT22;12046;44.702;10.622;2023-04-03T00:01:33;11.00;98.60
23731;DHT22;12046;44.702;10.622;2023-04-03T00:03:59;11.00;98.60
23731;DHT22;12046;44.702;10.622;2023-04-03T00:06:25;11.00;98.60
23731;DHT22;12046;44.702;10.622;2023-04-03T00:08:52;11.10;98.60
23731;DHT22;12046;44.702;10.622;2023-04-03T00:11:18;11.10;98.60
23731;DHT22;12046;44.702;10.622;2023-04-03T00:13:44;11.10;98.50
23731;DHT22;12046;44.702;10.622;2023-04-03T00:16:11;11.10;98.50
23731;DHT22;12046;44.702;10.622;2023-04-03T00:18:38;11.10;98.50
23731;DHT22;12046;44.702;10.622;2023-04-03T00:21:05;11.10;98.50
23731;DHT22;12046;44.702;10.622;2023-04-03T00:23:31;11.10;98.80
23731;DHT22;12046;44.702;10.622;2023-04-03T00:25:56;11.10;98.50
23731;DHT22;12046;44.702;10.622;2023-04-03T00:28:23;11.10;98.60
23731;DHT22;12046;44.702;10.622;2023-04-03T00:30:49;11.10;98.70
23731;DHT22;12046;44.702;10.622;2023-04-03T00:33:15;11.20;98.80
23731;DHT22;12046;44.702;10.622;2023-04-03T00:35:41;11.10;98.80
23731;DHT22;12046;44.702;10.622;2023-04-03T00:38:08;11.10;98.80
23731;DHT22;12046;44.702;10.622;2023-04-03T00:40:41;11.10;98.80
23731;DHT22;12046;44.702;10.622;2023-04-03T00:43:25;11.10;98.90
23731;DHT22;12046;44.702;10.622;2023-04-03T00:45:57;11.10;98.90
23731;DHT22;12046;44.702;10.622;2023-04-03T00:48:27;11.10;98.90
23731;DHT22;12046;44.702;10.622;2023-04-03T00:50:55;11.10;98.90
23731;DHT22;12046;44.702;10.622;2023-04-03T00:53:34;11.10;98.90
23731;DHT22;12046;44.702;10.622;2023-04-03T00:56:04;11.10;99.00
23731;DHT22;12046;44.702;10.622;2023-04-03T00:58:38;11.10;99.00
23731;DHT22;12046;44.702;10.622;2023-04-03T01:01:08;11.10;99.10
23731;DHT22;12046;44.702;10.622;2023-04-03T01:03:35;11.10;99.10
23731;DHT22;12046;44.702;10.622;2023-04-03T01:06:02;11.10;99.10
23731;DHT22;12046;44.702;10.622;2023-04-03T01:08:28;11.10;99.10
23731;DHT22;12046;44.702;10.622;2023-04-03T01:10:54;11.10;99.20
23731;DHT22;12046;44.702;10.622;2023-04-03T01:13:26;11.10;99.20
23731;DHT22;12046;44.702;10.622;2023-04-03T01:15:53;11.10;99.20
23731;DHT22;12046;44.702;10.622;2023-04-03T01:18:20;11.00;99.30
23731;DHT22;12046;44.702;10.622;2023-04-03T01:26:28;11.00;99.50
23731;DHT22;12046;44.702;10.622;2023-04-03T01:28:54;11.00;99.50
23731;DHT22;12046;44.702;10.622;2023-04-03T01:31:28;11.00;99.60
23731;DHT22;12046;44.702;10.622;2023-04-03T01:33:56;10.90;99.60
23731;DHT22;12046;44.702;10.622;2023-04-03T01:36:28;11.00;99.70
23731;DHT22;12046;44.702;10.622;2023-04-03T01:38:56;10.90;99.80
23731;DHT22;12046;44.702;10.622;2023-04-03T01:41:22;10.90;99.90
23731;DHT22;12046;44.702;10.622;2023-04-03T01:43:49;10.80;99.90
23731;DHT22;12046;44.702;10.622;2023-04-03T01:46:15;10.80;99.90
23731;DHT22;12046;44.702;10.622;2023-04-03T01:48:41;10.70;99.90
23731;DHT22;12046;44.702;10.622;2023-04-03T01:51:07;10.60;99.90
23731;DHT22;12046;44.702;10.622;2023-04-03T01:53:33;10.60;99.90
23731;DHT22;12046;44.702;10.622;2023-04-03T01:55:59;10.50;99.90
23731;DHT22;12046;44.702;10.622;2023-04-03T01:58:25;10.50;99.90
23731;DHT22;12046;44.702;10.622;2023-04-03T02:00:51;10.40;99.90
23731;DHT22;12046;44.702;10.622;2023-04-03T02:03:17;10.40;99.90
23731;DHT22;12046;44.702;10.622;2023-04-03T02:05:44;10.40;99.90
23731;DHT22;12046;44.702;10.622;2023-04-03T02:08:10;10.40;99.90
23731;DHT22;12046;44.702;10.622;2023-04-03T02:10:36;10.50;99.90
23731;DHT22;12046;44.702;10.622;2023-04-03T02:13:02;10.50;99.90
23731;DHT22;12046;44.702;10.622;2023-04-03T02:15:27;10.60;99.90
23731;DHT22;12046;44.702;10.622;2023-04-03T02:17:53;10.60;99.90
23731;DHT22;12046;44.702;10.622;2023-04-03T02:20:19;10.60;99.90
23731;DHT22;12046;44.702;10.622;2023-04-03T02:22:45;10.60;99.90
23731;DHT22;12046;44.702;10.622;2023-04-03T02:25:11;10.70;99.90
23731;DHT22;12046;44.702;10.622;2023-04-03T02:27:38;10.70;99.90
23731;DHT22;12046;44.702;10.622;2023-04-03T02:30:04;10.70;99.90
23731;DHT22;12046;44.702;10.622;2023-04-03T02:32:31;10.70;99.90
23731;DHT22;12046;44.702;10.622;2023-04-03T02:34:56;10.70;99.90
23731;DHT22;12046;44.702;10.622;2023-04-03T02:37:22;10.60;99.90
23731;DHT22;12046;44.702;10.622;2023-04-03T02:39:48;10.60;99.90
23731;DHT22;12046;44.702;10.622;2023-04-03T02:42:14;10.60;99.90
23731;DHT22;12046;44.702;10.622;2023-04-03T02:44:40;10.60;99.90
23731;DHT22;12046;44.702;10.622;2023-04-03T02:47:05;10.60;99.90
23731;DHT22;12046;44.702;10.622;2023-04-03T02:49:31;10.60;99.90
23731;DHT22;12046;44.702;10.622;2023-04-03T02:51:57;10.50;99.90
23731;DHT22;12046;44.702;10.622;2023-04-03T02:54:23;10.60;99.90
23731;DHT22;12046;44.702;10.622;2023-04-03T02:56:53;10.60;99.90
23731;DHT22;12046;44.702;10.622;2023-04-03T02:59:19;10.60;99.90
23731;DHT22;12046;44.702;10.622;2023-04-03T03:01:45;10.60;99.90
23731;DHT22;12046;44.702;10.622;2023-04-03T03:04:11;10.60;99.90
23731;DHT22;12046;44.702;10.622;2023-04-03T03:06:37;10.60;99.90
23731;DHT22;12046;44.702;10.622;2023-04-03T03:09:03;10.60;99.90
23731;DHT22;12046;44.702;10.622;2023-04-03T03:11:29;10.60;99.90
23731;DHT22;12046;44.702;10.622;2023-04-03T03:13:55;10.60;99.90
23731;DHT22;12046;44.702;10.622;2023-04-03T03:16:21;10.60;99.90
23731;DHT22;12046;44.702;10.622;2023-04-03T03:18:47;10.60;99.90
23731;DHT22;12046;44.702;10.622;2023-04-03T03:21:13;10.60;99.90
23731;DHT22;12046;44.702;10.622;2023-04-03T03:23:39;10.60;99.90
23731;DHT22;12046;44.702;10.622;2023-04-03T03:26:07;10.70;99.90
23731;DHT22;12046;44.702;10.622;2023-04-03T03:28:35;10.70;99.90
23731;DHT22;12046;44.702;10.622;2023-04-03T03:31:02;10.80;99.90
23731;DHT22;12046;44.702;10.622;2023-04-03T03:33:28;10.80;99.90
23731;DHT22;12046;44.702;10.622;2023-04-03T03:35:54;10.90;99.90
23731;DHT22;12046;44.702;10.622;2023-04-03T03:38:21;10.90;99.90
23731;DHT22;12046;44.702;10.622;2023-04-03T03:40:48;10.90;99.90
23731;DHT22;12046;44.702;10.622;2023-04-03T03:43:14;10.90;99.90
23731;DHT22;12046;44.702;10.622;2023-04-03T03:45:40;10.90;99.90
23731;DHT22;12046;44.702;10.622;2023-04-03T03:48:06;10.90;99.90
23731;DHT22;12046;44.702;10.622;2023-04-03T03:50:32;10.90;99.90
23731;DHT22;12046;44.702;10.622;2023-04-03T03:52:58;10.90;99.90
23731;DHT22;12046;44.702;10.622;2023-04-03T03:55:24;10.90;99.90
23731;DHT22;12046;44.702;10.622;2023-04-03T03:57:50;10.90;99.90
23731;DHT22;12046;44.702;10.622;2023-04-03T04:00:16;10.90;99.90
23731;DHT22;12046;44.702;10.622;2023-04-03T04:02:42;10.80;99.90
23731;DHT22;12046;44.702;10.622;2023-04-03T04:05:08;10.80;99.90
23731;DHT22;12046;44.702;10.622;2023-04-03T04:07:34;10.80;99.90
23731;DHT22;12046;44.702;10.622;2023-04-03T04:10:00;10.80;99.90
23731;DHT22;12046;44.702;10.622;2023-04-03T04:12:25;10.80;99.90
23731;DHT22;12046;44.702;10.622;2023-04-03T04:14:51;10.80;99.90
23731;DHT22;12046;44.702;10.622;2023-04-03T04:17:17;10.80;99.90
23731;DHT22;12046;44.702;10.622;2023-04-03T04:19:43;10.80;99.90
23731;DHT22;12046;44.702;10.622;2023-04-03T04:22:09;10.80;99.90
23731;DHT22;12046;44.702;10.622;2023-04-03T04:24:34;10.80;99.90
23731;DHT22;12046;44.702;10.622;2023-04-03T04:27:00;10.80;99.90
23731;DHT22;12046;44.702;10.622;2023-04-03T04:29:26;10.70;99.90
23731;DHT22;12046;44.702;10.622;2023-04-03T04:31:52;10.70;99.90
23731;DHT22;12046;44.702;10.622;2023-04-03T04:34:17;10.70;99.90
23731;DHT22;12046;44.702;10.622;2023-04-03T04:36:43;10.70;99.90
23731;DHT22;12046;44.702;10.622;2023-04-03T04:39:09;10.60;99.90
23731;DHT22;12046;44.702;10.622;2023-04-03T04:41:35;10.60;99.90
23731;DHT22;12046;44.702;10.622;2023-04-03T04:44:01;10.60;99.90
23731;DHT22;12046;44.702;10.622;2023-04-03T04:46:27;10.60;99.90
23731;DHT22;12046;44.702;10.622;2023-04-03T04:48:52;10.60;99.90
23731;DHT22;12046;44.702;10.622;2023-04-03T04:51:19;10.50;99.90
23731;DHT22;12046;44.702;10.622;2023-04-03T04:53:44;10.50;99.90
23731;DHT22;12046;44.702;10.622;2023-04-03T04:56:11;10.40;99.90
23731;DHT22;12046;44.702;10.622;2023-04-03T04:58:37;10.40;99.90
23731;DHT22;12046;44.702;10.622;2023-04-03T05:01:07;10.40;99.90
23731;DHT22;12046;44.702;10.622;2023-04-03T05:03:34;10.40;99.90
23731;DHT22;12046;44.702;10.622;2023-04-03T05:06:00;10.30;99.90
23731;DHT22;12046;44.702;10.622;2023-04-03T05:08:26;10.30;99.90
23731;DHT22;12046;44.702;10.622;2023-04-03T05:10:52;10.20;99.90
23731;DHT22;12046;44.702;10.622;2023-04-03T05:13:19;10.20;99.90
23731;DHT22;12046;44.702;10.622;2023-04-03T05:15:45;10.20;99.90
23731;DHT22;12046;44.702;10.622;2023-04-03T05:18:11;10.10;99.90
23731;DHT22;12046;44.702;10.622;2023-04-03T05:20:37;10.10;99.90
23731;DHT22;12046;44.702;10.622;2023-04-03T05:23:03;10.00;99.90
23731;DHT22;12046;44.702;10.622;2023-04-03T05:25:29;10.00;99.90
23731;DHT22;12046;44.702;10.622;2023-04-03T05:27:55;10.00;99.90
23731;DHT22;12046;44.702;10.622;2023-04-03T05:30:21;10.00;99.90
23731;DHT22;12046;44.702;10.622;2023-04-03T05:32:47;10.10;99.90
23731;DHT22;12046;44.702;10.622;2023-04-03T05:35:13;10.10;99.90
23731;DHT22;12046;44.702;10.622;2023-04-03T05:37:39;10.20;99.90
23731;DHT22;12046;44.702;10.622;2023-04-03T05:40:05;10.20;99.90
23731;DHT22;12046;44.702;10.622;2023-04-03T05:42:32;10.30;99.90
23731;DHT22;12046;44.702;10.622;2023-04-03T05:44:58;10.30;99.90
23731;DHT22;12046;44.702;10.622;2023-04-03T05:47:25;10.30;99.90
23731;DHT22;12046;44.702;10.622;2023-04-03T05:49:51;10.30;99.90
23731;DHT22;12046;44.702;10.622;2023-04-03T05:52:29;10.40;99.90
23731;DHT22;12046;44.702;10.622;2023-04-03T05:54:55;10.50;99.90
23731;DHT22;12046;44.702;10.622;2023-04-03T05:57:22;10.50;99.90
23731;DHT22;12046;44.702;10.622;2023-04-03T05:59:48;10.60;99.90
23731;DHT22;12046;44.702;10.622;2023-04-03T06:02:16;10.60;99.90
23731;DHT22;12046;44.702;10.622;2023-04-03T06:04:42;10.60;99.90
23731;DHT22;12046;44.702;10.622;2023-04-03T06:07:12;10.70;99.90
23731;DHT22;12046;44.702;10.622;2023-04-03T06:09:38;10.80;99.90
23731;DHT22;12046;44.702;10.622;2023-04-03T06:12:04;10.80;99.90
23731;DHT22;12046;44.702;10.622;2023-04-03T06:14:30;10.90;99.90
23731;DHT22;12046;44.702;10.622;2023-04-03T06:16:56;11.00;99.90
23731;DHT22;12046;44.702;10.622;2023-04-03T06:19:22;11.00;99.90
23731;DHT22;12046;44.702;10.622;2023-04-03T06:21:48;11.10;99.90
23731;DHT22;12046;44.702;10.622;2023-04-03T06:24:16;11.20;99.90
23731;DHT22;12046;44.702;10.622;2023-04-03T06:26:42;11.30;99.90
23731;DHT22;12046;44.702;10.622;2023-04-03T06:29:08;11.40;99.90
23731;DHT22;12046;44.702;10.622;2023-04-03T06:31:34;11.50;99.90
23731;DHT22;12046;44.702;10.622;2023-04-03T06:34:02;11.70;99.90
23731;DHT22;12046;44.702;10.622;2023-04-03T06:36:28;11.80;99.90
23731;DHT22;12046;44.702;10.622;2023-04-03T06:38:55;11.90;99.90
23731;DHT22;12046;44.702;10.622;2023-04-03T06:41:21;12.00;99.90
23731;DHT22;12046;44.702;10.622;2023-04-03T06:43:47;12.10;99.90
23731;DHT22;12046;44.702;10.622;2023-04-03T06:46:17;12.20;99.90
23731;DHT22;12046;44.702;10.622;2023-04-03T06:48:44;12.20;99.90
23731;DHT22;12046;44.702;10.622;2023-04-03T06:51:20;12.40;99.90
23731;DHT22;12046;44.702;10.622;2023-04-03T06:53:47;12.40;99.90
23731;DHT22;12046;44.702;10.622;2023-04-03T06:56:14;12.50;99.90
23731;DHT22;12046;44.702;10.622;2023-04-03T06:58:40;12.70;99.90
23731;DHT22;12046;44.702;10.622;2023-04-03T07:01:08;12.80;99.90
23731;DHT22;12046;44.702;10.622;2023-04-03T07:03:35;12.90;99.90
23731;DHT22;12046;44.702;10.622;2023-04-03T07:06:01;13.10;99.90
23731;DHT22;12046;44.702;10.622;2023-04-03T07:08:27;13.20;99.90
23731;DHT22;12046;44.702;10.622;2023-04-03T07:10:53;13.40;99.90
23731;DHT22;12046;44.702;10.622;2023-04-03T07:13:18;13.50;99.90
23731;DHT22;12046;44.702;10.622;2023-04-03T07:15:45;13.70;99.90
23731;DHT22;12046;44.702;10.622;2023-04-03T07:18:20;13.80;99.90
23731;DHT22;12046;44.702;10.622;2023-04-03T07:20:49;14.00;99.90
23731;DHT22;12046;44.702;10.622;2023-04-03T07:23:16;14.10;99.90
23731;DHT22;12046;44.702;10.622;2023-04-03T07:25:43;14.20;99.90
23731;DHT22;12046;44.702;10.622;2023-04-03T07:28:09;14.30;99.90
23731;DHT22;12046;44.702;10.622;2023-04-03T07:30:44;14.50;99.90
23731;DHT22;12046;44.702;10.622;2023-04-03T07:33:11;14.60;99.90
23731;DHT22;12046;44.702;10.622;2023-04-03T07:35:39;14.80;99.90
23731;DHT22;12046;44.702;10.622;2023-04-03T07:38:05;14.90;99.90
23731;DHT22;12046;44.702;10.622;2023-04-03T07:40:32;15.00;99.90
23731;DHT22;12046;44.702;10.622;2023-04-03T07:42:57;15.20;99.90
23731;DHT22;12046;44.702;10.622;2023-04-03T07:45:24;15.30;99.80
23731;DHT22;12046;44.702;10.622;2023-04-03T07:47:50;15.40;99.70
23731;DHT22;12046;44.702;10.622;2023-04-03T07:50:17;15.40;99.70
23731;DHT22;12046;44.702;10.622;2023-04-03T07:52:44;15.50;99.70
23731;DHT22;12046;44.702;10.622;2023-04-03T07:55:11;15.60;99.70
23731;DHT22;12046;44.702;10.622;2023-04-03T07:57:37;15.70;99.70
23731;DHT22;12046;44.702;10.622;2023-04-03T08:00:06;15.80;99.80
23731;DHT22;12046;44.702;10.622;2023-04-03T08:02:32;15.90;99.70
23731;DHT22;12046;44.702;10.622;2023-04-03T08:04:58;16.00;99.30
23731;DHT22;12046;44.702;10.622;2023-04-03T08:07:25;16.00;99.20
23731;DHT22;12046;44.702;10.622;2023-04-03T08:09:51;16.00;99.30
23731;DHT22;12046;44.702;10.622;2023-04-03T08:12:17;15.90;99.40
23731;DHT22;12046;44.702;10.622;2023-04-03T08:14:43;15.90;99.50
23731;DHT22;12046;44.702;10.622;2023-04-03T08:17:09;16.00;99.70
23731;DHT22;12046;44.702;10.622;2023-04-03T08:19:40;16.00;99.80
23731;DHT22;12046;44.702;10.622;2023-04-03T08:22:06;16.10;99.80
23731;DHT22;12046;44.702;10.622;2023-04-03T08:24:35;16.20;99.90
23731;DHT22;12046;44.702;10.622;2023-04-03T08:27:01;16.20;99.90
23731;DHT22;12046;44.702;10.622;2023-04-03T08:29:27;16.40;99.90
23731;DHT22;12046;44.702;10.622;2023-04-03T08:31:53;16.60;99.90
23731;DHT22;12046;44.702;10.622;2023-04-03T08:34:19;16.80;99.80
23731;DHT22;12046;44.702;10.622;2023-04-03T08:36:46;16.90;99.50
23731;DHT22;12046;44.702;10.622;2023-04-03T08:39:12;17.00;99.20
23731;DHT22;12046;44.702;10.622;2023-04-03T08:41:43;17.00;99.10
23731;DHT22;12046;44.702;10.622;2023-04-03T08:44:52;17.10;99.10
23731;DHT22;12046;44.702;10.622;2023-04-03T08:47:31;17.20;99.00
23731;DHT22;12046;44.702;10.622;2023-04-03T08:50:10;17.40;98.90
23731;DHT22;12046;44.702;10.622;2023-04-03T08:52:52;17.50;98.60
23731;DHT22;12046;44.702;10.622;2023-04-03T08:55:28;17.70;98.60
23731;DHT22;12046;44.702;10.622;2023-04-03T08:58:06;17.90;98.40
23731;DHT22;12046;44.702;10.622;2023-04-03T09:03:22;18.10;97.80
23731;DHT22;12046;44.702;10.622;2023-04-03T09:06:00;18.10;97.70
23731;DHT22;12046;44.702;10.622;2023-04-03T09:08:30;18.20;97.70
23731;DHT22;12046;44.702;10.622;2023-04-03T09:13:52;18.40;97.50
23731;DHT22;12046;44.702;10.622;2023-04-03T09:16:35;18.50;97.20
23731;DHT22;12046;44.702;10.622;2023-04-03T09:21:39;18.50;97.00
23731;DHT22;12046;44.702;10.622;2023-04-03T09:24:11;18.70;97.00
23731;DHT22;12046;44.702;10.622;2023-04-03T09:26:58;18.80;96.80
23731;DHT22;12046;44.702;10.622;2023-04-03T09:29:26;19.00;96.40
23731;DHT22;12046;44.702;10.622;2023-04-03T09:32:02;19.10;96.10
23731;DHT22;12046;44.702;10.622;2023-04-03T09:34:36;19.20;95.90
23731;DHT22;12046;44.702;10.622;2023-04-03T09:37:04;19.40;95.70
23731;DHT22;12046;44.702;10.622;2023-04-03T09:39:53;19.50;95.50
23731;DHT22;12046;44.702;10.622;2023-04-03T09:42:21;19.60;95.00
23731;DHT22;12046;44.702;10.622;2023-04-03T09:44:59;19.60;94.20
23731;DHT22;12046;44.702;10.622;2023-04-03T09:47:26;19.60;94.40
23731;DHT22;12046;44.702;10.622;2023-04-03T09:50:22;19.90;93.80
23731;DHT22;12046;44.702;10.622;2023-04-03T09:52:50;20.30;93.10
23731;DHT22;12046;44.702;10.622;2023-04-03T09:55:22;20.70;92.70
23731;DHT22;12046;44.702;10.622;2023-04-03T09:58:02;21.30;92.20
23731;DHT22;12046;44.702;10.622;2023-04-03T10:00:35;21.50;91.30
23731;DHT22;12046;44.702;10.622;2023-04-03T10:03:02;21.70;90.90
23731;DHT22;12046;44.702;10.622;2023-04-03T10:08:15;21.70;90.10
23731;DHT22;12046;44.702;10.622;2023-04-03T10:10:48;21.80;90.00
23731;DHT22;12046;44.702;10.622;2023-04-03T10:13:30;21.90;89.30
23731;DHT22;12046;44.702;10.622;2023-04-03T10:16:07;21.80;87.70
23731;DHT22;12046;44.702;10.622;2023-04-03T10:18:41;21.60;87.70
23731;DHT22;12046;44.702;10.622;2023-04-03T10:21:19;21.20;88.00
23731;DHT22;12046;44.702;10.622;2023-04-03T10:23:51;20.90;88.50
23731;DHT22;12046;44.702;10.622;2023-04-03T10:26:46;20.60;89.40
23731;DHT22;12046;44.702;10.622;2023-04-03T10:32:15;20.30;90.20
23731;DHT22;12046;44.702;10.622;2023-04-03T10:34:44;20.10;90.40
23731;DHT22;12046;44.702;10.622;2023-04-03T10:42:58;19.80;91.00
23731;DHT22;12046;44.702;10.622;2023-04-03T10:51:25;19.90;90.00
23731;DHT22;12046;44.702;10.622;2023-04-03T10:59:32;20.10;90.00
23731;DHT22;12046;44.702;10.622;2023-04-03T11:02:01;20.10;90.30
23731;DHT22;12046;44.702;10.622;2023-04-03T11:04:33;20.10;90.30
23731;DHT22;12046;44.702;10.622;2023-04-03T11:09:43;20.00;90.00
23731;DHT22;12046;44.702;10.622;2023-04-03T11:12:23;20.00;88.40
23731;DHT22;12046;44.702;10.622;2023-04-03T11:14:52;20.20;87.80
23731;DHT22;12046;44.702;10.622;2023-04-03T11:25:31;20.60;84.80
23731;DHT22;12046;44.702;10.622;2023-04-03T11:28:04;20.80;84.30
23731;DHT22;12046;44.702;10.622;2023-04-03T11:33:21;21.00;81.50
23731;DHT22;12046;44.702;10.622;2023-04-03T11:35:57;21.00;81.00
23731;DHT22;12046;44.702;10.622;2023-04-03T11:38:33;21.10;80.90
23731;DHT22;12046;44.702;10.622;2023-04-03T11:41:03;21.20;81.10
23731;DHT22;12046;44.702;10.622;2023-04-03T11:43:32;21.30;80.40
23731;DHT22;12046;44.702;10.622;2023-04-03T11:46:05;21.40;80.00
23731;DHT22;12046;44.702;10.622;2023-04-03T11:53:40;21.40;78.80
23731;DHT22;12046;44.702;10.622;2023-04-03T11:56:32;21.30;78.80
23731;DHT22;12046;44.702;10.622;2023-04-03T11:59:27;21.10;78.40
23731;DHT22;12046;44.702;10.622;2023-04-03T12:02:02;20.80;77.90
23731;DHT22;12046;44.702;10.622;2023-04-03T12:04:28;20.70;78.00
23731;DHT22;12046;44.702;10.622;2023-04-03T12:07:19;20.60;78.00
23731;DHT22;12046;44.702;10.622;2023-04-03T12:09:57;20.50;78.00
23731;DHT22;12046;44.702;10.622;2023-04-03T12:12:33;20.70;78.10
23731;DHT22;12046;44.702;10.622;2023-04-03T12:15:24;20.80;78.40
23731;DHT22;12046;44.702;10.622;2023-04-03T12:17:50;20.80;79.70
23731;DHT22;12046;44.702;10.622;2023-04-03T12:23:31;20.30;83.30
23731;DHT22;12046;44.702;10.622;2023-04-03T12:26:19;20.10;84.20
23731;DHT22;12046;44.702;10.622;2023-04-03T12:28:48;20.00;84.90
23731;DHT22;12046;44.702;10.622;2023-04-03T12:31:16;20.10;85.40
23731;DHT22;12046;44.702;10.622;2023-04-03T12:40:09;20.50;84.10
23731;DHT22;12046;44.702;10.622;2023-04-03T12:44:53;20.90;83.40
23731;DHT22;12046;44.702;10.622;2023-04-03T12:47:29;20.90;83.20
23731;DHT22;12046;44.702;10.622;2023-04-03T12:49:59;21.00;82.80
23731;DHT22;12046;44.702;10.622;2023-04-03T12:52:32;20.80;82.70
23731;DHT22;12046;44.702;10.622;2023-04-03T12:55:00;20.80;82.40
23731;DHT22;12046;44.702;10.622;2023-04-03T12:57:30;20.60;82.10
23731;DHT22;12046;44.702;10.622;2023-04-03T12:59:58;20.50;81.70
23731;DHT22;12046;44.702;10.622;2023-04-03T13:02:31;20.40;81.90
23731;DHT22;12046;44.702;10.622;2023-04-03T13:05:08;20.20;82.30
23731;DHT22;12046;44.702;10.622;2023-04-03T13:07:37;20.10;82.70
23731;DHT22;12046;44.702;10.622;2023-04-03T13:12:53;20.00;81.50
23731;DHT22;12046;44.702;10.622;2023-04-03T13:15:25;19.90;80.90
23731;DHT22;12046;44.702;10.622;2023-04-03T13:17:53;19.90;80.80
23731;DHT22;12046;44.702;10.622;2023-04-03T13:20:25;19.80;80.50
23731;DHT22;12046;44.702;10.622;2023-04-03T13:23:05;19.80;80.50
23731;DHT22;12046;44.702;10.622;2023-04-03T13:25:36;19.80;80.00
23731;DHT22;12046;44.702;10.622;2023-04-03T13:28:05;19.80;79.90
23731;DHT22;12046;44.702;10.622;2023-04-03T13:30:36;19.60;79.60
23731;DHT22;12046;44.702;10.622;2023-04-03T13:33:06;19.40;79.90
23731;DHT22;12046;44.702;10.622;2023-04-03T13:35:38;19.40;80.50
23731;DHT22;12046;44.702;10.622;2023-04-03T13:41:25;19.20;80.20
23731;DHT22;12046;44.702;10.622;2023-04-03T13:43:51;19.20;80.70
23731;DHT22;12046;44.702;10.622;2023-04-03T13:48:46;19.30;80.40
23731;DHT22;12046;44.702;10.622;2023-04-03T13:56:35;19.30;79.70
23731;DHT22;12046;44.702;10.622;2023-04-03T13:59:20;19.20;80.00
23731;DHT22;12046;44.702;10.622;2023-04-03T14:05:02;19.00;80.50
23731;DHT22;12046;44.702;10.622;2023-04-03T14:07:24;19.00;80.30
23731;DHT22;12046;44.702;10.622;2023-04-03T14:09:51;18.90;80.30
23731;DHT22;12046;44.702;10.622;2023-04-03T14:12:29;19.00;79.30
23731;DHT22;12046;44.702;10.622;2023-04-03T14:14:56;18.90;78.20
23731;DHT22;12046;44.702;10.622;2023-04-03T14:17:24;18.80;77.30
23731;DHT22;12046;44.702;10.622;2023-04-03T14:19:51;18.70;76.60
23731;DHT22;12046;44.702;10.622;2023-04-03T14:22:25;18.60;76.70
23731;DHT22;12046;44.702;10.622;2023-04-03T14:24:51;18.60;76.40
23731;DHT22;12046;44.702;10.622;2023-04-03T14:27:22;18.60;74.40
23731;DHT22;12046;44.702;10.622;2023-04-03T14:29:50;18.70;72.90
23731;DHT22;12046;44.702;10.622;2023-04-03T14:32:18;18.70;71.20
23731;DHT22;12046;44.702;10.622;2023-04-03T14:34:45;18.70;70.70
23731;DHT22;12046;44.702;10.622;2023-04-03T14:37:13;18.80;69.60
23731;DHT22;12046;44.702;10.622;2023-04-03T14:39:40;18.80;68.60
23731;DHT22;12046;44.702;10.622;2023-04-03T14:42:12;18.90;68.00
23731;DHT22;12046;44.702;10.622;2023-04-03T14:44:38;18.80;67.60
23731;DHT22;12046;44.702;10.622;2023-04-03T14:47:04;18.80;66.90
23731;DHT22;12046;44.702;10.622;2023-04-03T14:49:30;18.70;66.50
23731;DHT22;12046;44.702;10.622;2023-04-03T14:51:57;18.70;66.00
23731;DHT22;12046;44.702;10.622;2023-04-03T14:54:23;18.70;65.80
23731;DHT22;12046;44.702;10.622;2023-04-03T14:56:55;18.70;65.40
23731;DHT22;12046;44.702;10.622;2023-04-03T14:59:21;18.70;64.20
23731;DHT22;12046;44.702;10.622;2023-04-03T15:01:47;18.70;63.60
23731;DHT22;12046;44.702;10.622;2023-04-03T15:04:18;18.60;63.70
23731;DHT22;12046;44.702;10.622;2023-04-03T15:06:44;18.50;63.80
23731;DHT22;12046;44.702;10.622;2023-04-03T15:09:28;18.50;63.80
23731;DHT22;12046;44.702;10.622;2023-04-03T15:11:55;18.30;64.20
23731;DHT22;12046;44.702;10.622;2023-04-03T15:14:21;18.20;64.80
23731;DHT22;12046;44.702;10.622;2023-04-03T15:16:48;18.20;65.40
23731;DHT22;12046;44.702;10.622;2023-04-03T15:19:13;18.10;65.70
23731;DHT22;12046;44.702;10.622;2023-04-03T15:21:40;18.10;66.00
23731;DHT22;12046;44.702;10.622;2023-04-03T15:24:06;18.10;66.20
23731;DHT22;12046;44.702;10.622;2023-04-03T15:26:32;18.10;66.30
23731;DHT22;12046;44.702;10.622;2023-04-03T15:28:58;18.00;66.70
23731;DHT22;12046;44.702;10.622;2023-04-03T15:31:24;18.00;67.00
23731;DHT22;12046;44.702;10.622;2023-04-03T15:33:49;17.90;67.30
23731;DHT22;12046;44.702;10.622;2023-04-03T15:36:16;17.80;67.10
23731;DHT22;12046;44.702;10.622;2023-04-03T15:38:42;17.80;67.10
23731;DHT22;12046;44.702;10.622;2023-04-03T15:41:08;17.70;66.90
23731;DHT22;12046;44.702;10.622;2023-04-03T15:43:33;17.60;67.00
23731;DHT22;12046;44.702;10.622;2023-04-03T15:46:01;17.60;66.70
23731;DHT22;12046;44.702;10.622;2023-04-03T15:48:27;17.50;66.10
23731;DHT22;12046;44.702;10.622;2023-04-03T15:50:53;17.40;65.70
23731;DHT22;12046;44.702;10.622;2023-04-03T15:53:20;17.40;65.60
23731;DHT22;12046;44.702;10.622;2023-04-03T15:55:46;17.30;65.70
23731;DHT22;12046;44.702;10.622;2023-04-03T15:58:12;17.30;65.80
23731;DHT22;12046;44.702;10.622;2023-04-03T16:00:41;17.30;66.00
23731;DHT22;12046;44.702;10.622;2023-04-03T16:03:25;17.30;66.30
23731;DHT22;12046;44.702;10.622;2023-04-03T16:05:52;17.20;66.60
23731;DHT22;12046;44.702;10.622;2023-04-03T16:08:18;17.20;66.90
23731;DHT22;12046;44.702;10.622;2023-04-03T16:10:45;17.10;67.40
23731;DHT22;12046;44.702;10.622;2023-04-03T16:13:11;17.10;67.60
23731;DHT22;12046;44.702;10.622;2023-04-03T16:15:37;17.10;68.10
23731;DHT22;12046;44.702;10.622;2023-04-03T16:18:04;17.00;68.50
23731;DHT22;12046;44.702;10.622;2023-04-03T16:20:31;16.90;68.80
23731;DHT22;12046;44.702;10.622;2023-04-03T16:22:58;16.70;69.20
23731;DHT22;12046;44.702;10.622;2023-04-03T16:25:25;16.70;69.50
23731;DHT22;12046;44.702;10.622;2023-04-03T16:27:52;16.60;69.30
23731;DHT22;12046;44.702;10.622;2023-04-03T16:30:18;16.50;69.20
23731;DHT22;12046;44.702;10.622;2023-04-03T16:32:44;16.40;69.50
23731;DHT22;12046;44.702;10.622;2023-04-03T16:35:10;16.40;69.00
23731;DHT22;12046;44.702;10.622;2023-04-03T16:37:37;16.30;68.20
23731;DHT22;12046;44.702;10.622;2023-04-03T16:40:06;16.20;67.30
23731;DHT22;12046;44.702;10.622;2023-04-03T16:42:32;16.20;66.80
23731;DHT22;12046;44.702;10.622;2023-04-03T16:44:58;16.10;66.50
23731;DHT22;12046;44.702;10.622;2023-04-03T16:47:26;16.10;66.30
23731;DHT22;12046;44.702;10.622;2023-04-03T16:49:52;16.10;66.30